Southfield, Massachusetts
Current Conditions -  °F | °C
As of 11:54 AM on Friday 31 Oct 2014 (Local Time) from KPSF Reporting Station
Overcast Overcast  
Wind Chill: 45°   Ceiling: 4100
Heat Index: 45°   Visibility: 10mi
Dew Point: 36°   Wind: 3mph
Humidity: 71%   Direction: 100°E
Pressure: 29.97"   Gusts: NA
Location:  42.1°N, 73.23°W
Report Text: KPSF 311554Z AUTO 10003KT 10SM OVC041 07/02 A2997 RMK AO2 SLP151 T00720022
Loading
Personal Weather Stations






























Interactive Weather Map
Tropical Storm Tracking
New forecast layout! Learn more

10-Day Weather Forecast

Advertisements
Track Severe Weather on mobile